Observations for Trim Patrick St
| Time | AQI | Temp °C | Hum % | Pres Pa | CO μg/m³ | H₂S μg/m³ | NO μg/m³ | NO₂ μg/m³ | O₃ μg/m³ | SO₂ μg/m³ | PM1 μg/m³ | PM2.5 μg/m³ | PM10 μg/m³ |
|---|---|---|---|---|---|---|---|---|---|---|---|---|---|
| Friday 28 August 2026 | |||||||||||||
| 10:46 | 2 | 21.4 | 75 | 38,460 | 0 | 0 | 1.89 | 0.18 | 42.08 | 5.33 | 20.86 | 28.25 | 31.07 |
| 10:45 | 2 | 21.5 | 74 | 38,460 | 0 | 0 | 1.84 | 0.3 | 37.9 | 5.64 | 19.14 | 27.72 | 30.49 |
| 10:44 | 2 | 21.5 | 74 | 38,460 | 0 | 0 | 1.93 | 0.57 | 34.52 | 5.43 | 18.29 | 25.52 | 28.07 |
| 10:43 | 2 | 21.5 | 75 | 38,460 | 0 | 0 | 1.91 | 0 | 33.59 | 5.21 | 20 | 27.58 | 30.33 |
| 10:42 | 2 | 21.5 | 76 | 38,460 | 0 | 0 | 1.97 | 0 | 40.41 | 5.75 | 20.86 | 27.47 | 30.22 |
| 10:41 | 2 | 21.5 | 74 | 38,460 | 0 | 0 | 1.91 | 0 | 31.73 | 5.6 | 19.14 | 28.39 | 31.23 |
| 10:40 | 2 | 21.5 | 75 | 38,460 | 0 | 0 | 1.91 | 0 | 39.32 | 5.43 | 19.14 | 25.39 | 27.93 |
| 10:39 | 2 | 21.6 | 76 | 38,460 | 0.04 | 0 | 1.94 | 0 | 35.59 | 5.51 | 19.14 | 28.19 | 31.01 |
| 10:38 | 2 | 21.6 | 75 | 38,460 | 0.04 | 0 | 1.88 | 0.41 | 23.69 | 6.6 | 20 | 27.61 | 28.66 |
| 10:36 | 2 | 21.6 | 76 | 38,460 | 0.02 | 0 | 1.96 | 0 | 37.74 | 5.09 | 20.86 | 28.86 | 29.03 |
| 10:35 | 2 | 21.6 | 75 | 38,460 | 0.04 | 0 | 2.08 | 0 | 32.29 | 5.23 | 19.14 | 28.98 | 29.28 |
| 10:32 | 2 | 21.7 | 75 | 38,460 | 0.15 | 0 | 1.99 | 0 | 34.71 | 6.04 | 19.14 | 27.52 | 30.28 |
| 10:31 | 2 | 21.6 | 75 | 38,460 | 0.16 | 0 | 2 | 0.23 | 16 | 7.32 | 20.86 | 28.97 | 30.71 |
| 10:29 | 2 | 21.6 | 75 | 38,460 | 0.07 | 0 | 1.93 | 0.03 | 21.46 | 5.29 | 20 | 28.26 | 31.09 |
| 10:28 | 2 | 21.6 | 76 | 38,460 | 0.07 | 0 | 2.02 | 0 | 31.14 | 5.48 | 19.14 | 25.29 | 27.82 |
| 10:26 | 2 | 21.5 | 76 | 38,460 | 0.04 | 0 | 1.97 | 0 | 33.69 | 5.04 | 18.29 | 26.05 | 28.66 |
| 10:25 | 2 | 21.5 | 76 | 38,460 | 0.06 | 0 | 1.95 | 0 | 37.71 | 4.31 | 20 | 27.5 | 30.25 |
| 10:24 | 2 | 21.5 | 77 | 38,460 | 0.09 | 0 | 2.01 | 0 | 22.06 | 3.95 | 19.14 | 27.31 | 30.05 |
| 10:23 | 2 | 21.5 | 77 | 38,460 | 0.08 | 0 | 2.02 | 0 | 22.9 | 5.19 | 20 | 27.29 | 30.02 |
| 10:22 | 2 | 21.4 | 78 | 38,460 | 0.08 | 0 | 2.03 | 0 | 37.01 | 4.99 | 19.14 | 25.13 | 27.65 |